Time;durP1;ratioP1;P1;durP2;ratioP2;P2;SDS_P1;SDS_P2;PMS_P1;PMS_P2;Temp;Humidity;BMP_temperature;BMP_pressure;BME280_temperature;BME280_humidity;BME280_pressure;Samples;Min_cycle;Max_cycle;Signal;HPM_P1;HPM_P2
2022/11/23 00:05:00;;;;;;;3.85;2.78;;;9.40;88.00;;;;;;11023510;32;20056;-74
2022/11/23 00:11:49;;;;;;;3.00;1.95;;;9.40;88.10;;;;;;11023356;32;20295;-74
2022/11/23 00:17:51;;;;;;;3.37;2.60;;;9.40;87.90;;;;;;11009379;32;20030;-74
2022/11/23 00:23:53;;;;;;;2.80;1.48;;;9.40;88.10;;;;;;11023015;32;20022;-73
2022/11/23 00:29:55;;;;;;;3.08;1.37;;;9.40;88.00;;;;;;11022731;32;20061;-74
2022/11/23 00:36:04;;;;;;;3.70;1.90;;;9.50;88.40;;;;;;11018124;32;20061;-74
2022/11/23 00:42:06;;;;;;;2.93;1.30;;;9.60;88.10;;;;;;11022347;32;20031;-73
2022/11/23 00:48:09;;;;;;;2.08;1.20;;;9.60;88.40;;;;;;11021924;32;20058;-73
2022/11/23 00:54:11;;;;;;;1.95;1.27;;;9.70;88.50;;;;;;11021820;32;20049;-74
2022/11/23 01:00:15;;;;;;;2.67;1.33;;;9.70;88.20;;;;;;11021660;32;20022;-73
2022/11/23 01:06:20;;;;;;;2.37;1.12;;;9.60;88.40;;;;;;11021509;32;20030;-73
2022/11/23 01:12:22;;;;;;;1.80;0.90;;;9.60;88.40;;;;;;11021135;32;20022;-73
2022/11/23 01:18:24;;;;;;;1.90;0.90;;;9.70;88.60;;;;;;11020907;32;20022;-73
2022/11/23 01:24:26;;;;;;;2.55;1.17;;;9.70;88.60;;;;;;11020732;32;20026;-73
2022/11/23 01:30:28;;;;;;;2.08;0.98;;;9.70;88.60;;;;;;11020283;32;20073;-73
2022/11/23 01:36:32;;;;;;;3.45;1.08;;;9.70;88.70;;;;;;11016045;32;20027;-73
2022/11/23 01:42:58;;;;;;;1.40;1.00;;;9.70;88.70;;;;;;11020136;32;20035;-73
2022/11/23 01:49:06;;;;;;;1.73;1.12;;;9.70;88.80;;;;;;11010847;32;20026;-73
2022/11/23 01:55:08;;;;;;;1.15;0.82;;;9.70;88.80;;;;;;11019652;32;20034;-73
2022/11/23 02:01:11;;;;;;;2.33;0.90;;;9.70;88.80;;;;;;11019441;32;20410;-73
2022/11/23 02:07:20;;;;;;;1.80;0.85;;;9.70;88.90;;;;;;11019372;32;20022;-73
2022/11/23 02:13:24;;;;;;;1.87;1.17;;;9.80;89.00;;;;;;11018798;32;20048;-73
2022/11/23 02:19:46;;;;;;;2.87;1.05;;;9.90;88.80;;;;;;11018890;32;20023;-73
2022/11/23 02:25:58;;;;;;;3.83;0.93;;;10.00;88.70;;;;;;11018719;32;20022;-73
2022/11/23 02:32:00;;;;;;;1.08;0.80;;;9.90;88.40;;;;;;11004823;32;20053;-73
2022/11/23 02:38:05;;;;;;;1.20;0.80;;;9.70;88.70;;;;;;11018415;32;20041;-73
2022/11/23 02:44:32;;;;;;;2.92;1.55;;;9.70;88.90;;;;;;11017447;32;20030;-73
2022/11/23 02:50:34;;;;;;;5.20;1.92;;;9.70;88.80;;;;;;11017956;32;20017;-75
2022/11/23 02:56:36;;;;;;;6.85;3.25;;;9.50;88.20;;;;;;11017732;32;20038;-75
2022/11/23 03:02:38;;;;;;;4.55;3.08;;;9.30;88.40;;;;;;11017701;32;20042;-75
2022/11/23 03:08:40;;;;;;;3.10;2.35;;;9.20;88.40;;;;;;11017616;32;20471;-75
2022/11/23 03:14:43;;;;;;;3.25;2.03;;;9.20;88.60;;;;;;11017430;32;20033;-75
2022/11/23 03:20:45;;;;;;;2.28;1.30;;;9.20;88.60;;;;;;11017360;32;20052;-75
2022/11/23 03:26:48;;;;;;;4.68;2.22;;;9.20;88.70;;;;;;11017210;32;20052;-75
2022/11/23 03:32:52;;;;;;;1.90;1.33;;;9.30;88.70;;;;;;11017094;32;20034;-75
2022/11/23 03:38:54;;;;;;;2.25;1.20;;;9.40;88.80;;;;;;11017122;32;20394;-75
2022/11/23 03:44:59;;;;;;;2.42;1.55;;;9.50;88.70;;;;;;11016946;32;20030;-75
2022/11/23 03:51:01;;;;;;;1.08;0.80;;;9.50;88.70;;;;;;11016985;32;20026;-75
2022/11/23 03:57:04;;;;;;;2.35;1.87;;;9.40;88.70;;;;;;11023319;32;20034;-75
2022/11/23 04:03:06;;;;;;;2.72;1.95;;;9.40;88.70;;;;;;11010140;32;20345;-75
2022/11/23 04:09:22;;;;;;;3.90;1.98;;;9.30;88.80;;;;;;11023393;32;20026;-75
2022/11/23 04:15:25;;;;;;;2.35;1.55;;;9.40;88.80;;;;;;11023144;32;20035;-75
2022/11/23 04:21:27;;;;;;;3.42;1.83;;;9.40;88.80;;;;;;11010239;32;20303;-75
2022/11/23 04:27:29;;;;;;;3.53;2.15;;;9.40;88.80;;;;;;11022914;32;20230;-75
2022/11/23 04:33:31;;;;;;;3.42;2.17;;;9.30;88.80;;;;;;11022627;32;20060;-75
2022/11/23 04:39:34;;;;;;;3.53;2.15;;;9.30;89.00;;;;;;11022245;32;20041;-75
2022/11/23 04:45:39;;;;;;;3.10;1.75;;;9.30;88.90;;;;;;11022157;32;20061;-75
2022/11/23 04:51:42;;;;;;;3.12;2.15;;;9.20;88.90;;;;;;11021968;32;20045;-75
2022/11/23 04:57:46;;;;;;;3.25;2.10;;;9.20;88.90;;;;;;11017500;32;20440;-75
2022/11/23 05:03:48;;;;;;;2.50;1.92;;;9.20;89.00;;;;;;11020952;32;20026;-75
2022/11/23 05:09:50;;;;;;;3.17;1.87;;;9.20;89.00;;;;;;11021217;32;20027;-75
2022/11/23 05:15:53;;;;;;;6.00;3.17;;;9.40;88.90;;;;;;11016926;32;20026;-75
2022/11/23 05:21:56;;;;;;;3.78;2.10;;;9.40;88.80;;;;;;11020897;32;20052;-75
2022/11/23 05:27:58;;;;;;;5.25;3.20;;;9.50;88.70;;;;;;11020730;32;20026;-75
2022/11/23 05:34:03;;;;;;;4.78;2.90;;;9.50;88.60;;;;;;11007140;32;20030;-75
2022/11/23 05:40:07;;;;;;;5.97;3.25;;;9.50;88.60;;;;;;11015862;32;20022;-75
2022/11/23 05:46:10;;;;;;;5.00;2.70;;;9.50;88.40;;;;;;11019966;32;20096;-75
2022/11/23 05:52:13;;;;;;;5.10;3.85;;;9.40;88.50;;;;;;11019699;32;20045;-75
2022/11/23 05:58:15;;;;;;;5.72;4.15;;;9.40;88.70;;;;;;11019493;32;20039;-75
2022/11/23 06:04:17;;;;;;;10.02;7.90;;;9.60;88.40;;;;;;11019238;32;20337;-75
2022/11/23 06:10:20;;;;;;;13.18;7.32;;;9.70;88.50;;;;;;11006883;32;20100;-75
2022/11/23 06:16:23;;;;;;;7.35;5.15;;;9.90;88.20;;;;;;11003421;32;20061;-75
2022/11/23 06:22:26;;;;;;;12.73;5.37;;;9.90;87.90;;;;;;11005153;32;20057;-75
2022/11/23 06:28:35;;;;;;;11.25;7.12;;;9.60;88.00;;;;;;11017866;32;20026;-75
2022/11/23 06:34:38;;;;;;;8.20;5.30;;;9.60;88.30;;;;;;11018214;32;20034;-75
2022/11/23 06:40:40;;;;;;;9.88;6.50;;;9.60;88.10;;;;;;11018161;32;20342;-75
2022/11/23 06:46:43;;;;;;;9.33;6.03;;;9.60;88.10;;;;;;10427618;32;17091150;-73
2022/11/23 06:52:46;;;;;;;10.02;5.78;;;9.60;88.00;;;;;;10785058;33;20047;-73
2022/11/23 06:58:48;;;;;;;7.30;4.68;;;9.60;88.00;;;;;;10785152;33;20039;-73
2022/11/23 07:04:51;;;;;;;7.20;4.85;;;9.60;88.00;;;;;;10783598;33;20063;-73
2022/11/23 07:11:22;;;;;;;7.37;4.47;;;9.40;88.00;;;;;;10788543;32;20043;-73
2022/11/23 07:17:44;;;;;;;9.47;6.70;;;9.20;88.20;;;;;;10858307;32;20027;-73
2022/11/23 07:23:46;;;;;;;10.18;5.95;;;9.20;88.20;;;;;;10858981;32;20054;-73
2022/11/23 07:29:49;;;;;;;6.65;3.90;;;9.20;88.20;;;;;;10864633;32;20020;-73
2022/11/23 07:35:51;;;;;;;8.70;5.68;;;9.10;88.30;;;;;;10867485;32;20044;-73
2022/11/23 07:41:55;;;;;;;8.68;6.93;;;9.20;88.40;;;;;;10917817;32;20027;-75
2022/11/23 07:48:04;;;;;;;10.10;7.28;;;9.30;88.50;;;;;;10867073;32;20023;-75
2022/11/23 07:54:06;;;;;;;9.27;7.30;;;9.30;88.00;;;;;;10866586;32;20058;-75
2022/11/23 08:00:09;;;;;;;14.00;9.85;;;9.20;88.20;;;;;;10862581;32;20016;-75
2022/11/23 08:06:14;;;;;;;19.62;17.12;;;9.20;88.10;;;;;;10862354;32;20016;-75
2022/11/23 08:12:16;;;;;;;12.68;10.30;;;9.20;88.20;;;;;;10866325;32;20050;-75
2022/11/23 08:18:19;;;;;;;10.82;9.52;;;9.20;88.30;;;;;;10866091;32;20046;-75
2022/11/23 08:24:21;;;;;;;13.35;11.80;;;9.60;88.70;;;;;;10866038;32;20442;-75
2022/11/23 08:30:24;;;;;;;16.52;14.00;;;9.70;88.10;;;;;;10864006;32;20035;-75
2022/11/23 08:36:26;;;;;;;17.70;14.27;;;9.80;88.10;;;;;;10865055;32;20048;-75
2022/11/23 08:42:28;;;;;;;18.62;14.38;;;9.80;87.90;;;;;;10864600;32;20054;-76
2022/11/23 08:48:30;;;;;;;16.23;12.98;;;9.80;88.10;;;;;;10865303;32;20086;-75
2022/11/23 08:54:32;;;;;;;20.23;14.93;;;9.80;88.20;;;;;;10916483;32;20383;-75
2022/11/23 09:00:34;;;;;;;16.35;12.55;;;9.90;87.50;;;;;;10864853;32;20028;-75
2022/11/23 09:06:36;;;;;;;18.65;14.90;;;10.00;87.80;;;;;;10864834;32;20327;-75
2022/11/23 09:12:38;;;;;;;15.65;12.43;;;10.10;87.00;;;;;;10860460;32;20066;-75
2022/11/23 09:18:40;;;;;;;16.12;11.50;;;10.20;86.80;;;;;;10864419;32;20383;-75
2022/11/23 09:24:42;;;;;;;12.77;10.07;;;10.30;86.00;;;;;;10864144;32;20058;-75
2022/11/23 09:30:47;;;;;;;13.77;10.07;;;10.40;85.20;;;;;;10864101;32;20050;-75
2022/11/23 09:36:49;;;;;;;11.20;8.82;;;10.40;84.90;;;;;;10863891;32;20040;-75
2022/11/23 09:43:15;;;;;;;12.40;9.93;;;10.50;84.90;;;;;;10863660;32;20058;-76
2022/11/23 09:49:20;;;;;;;6.95;4.93;;;10.50;84.80;;;;;;10863387;32;20027;-75
2022/11/23 09:55:41;;;;;;;8.23;5.53;;;10.70;85.00;;;;;;10913373;32;20019;-73
2022/11/23 10:01:43;;;;;;;6.28;4.28;;;10.90;84.80;;;;;;10863130;32;20059;-73
2022/11/23 10:07:57;;;;;;;7.10;5.57;;;11.00;83.60;;;;;;10862949;32;20054;-73
2022/11/23 10:14:23;;;;;;;7.35;5.45;;;11.20;83.40;;;;;;10861367;32;20039;-73
2022/11/23 10:21:02;;;;;;;7.70;5.00;;;11.30;82.80;;;;;;10862355;32;20015;-73
2022/11/23 10:27:15;;;;;;;6.17;3.50;;;11.30;81.10;;;;;;10862424;32;20058;-73
2022/11/23 10:33:52;;;;;;;6.12;3.05;;;11.50;80.20;;;;;;10862008;32;20312;-75
2022/11/23 10:39:54;;;;;;;3.72;2.37;;;11.70;81.10;;;;;;10936972;32;20402;-75
2022/11/23 10:46:50;;;;;;;3.78;2.78;;;11.80;81.40;;;;;;10937975;32;20457;-73
2022/11/23 10:53:00;;;;;;;3.87;2.55;;;12.10;80.00;;;;;;10826827;32;20058;-73
2022/11/23 10:59:02;;;;;;;4.05;2.42;;;12.20;80.10;;;;;;10826138;32;20031;-73
2022/11/23 11:05:36;;;;;;;4.25;2.72;;;12.40;80.10;;;;;;10825393;32;20418;-73
2022/11/23 11:11:44;;;;;;;3.53;2.33;;;12.50;79.90;;;;;;10817690;32;20039;-73
2022/11/23 11:17:57;;;;;;;6.90;3.80;;;12.80;79.40;;;;;;10933149;32;20030;-73
2022/11/23 11:24:31;;;;;;;8.57;5.82;;;12.90;78.80;;;;;;10928593;32;20024;-72
2022/11/23 11:31:17;;;;;;;4.97;3.15;;;12.90;78.60;;;;;;10975836;32;20074;-72
2022/11/23 11:37:37;;;;;;;3.65;2.47;;;13.10;78.30;;;;;;10939171;32;20038;-73
2022/11/23 11:43:39;;;;;;;4.03;2.78;;;13.20;79.20;;;;;;10974813;32;20379;-73
2022/11/23 11:50:57;;;;;;;3.28;2.35;;;13.30;79.00;;;;;;10974392;32;20061;-73
2022/11/23 11:57:04;;;;;;;3.67;1.98;;;13.30;79.00;;;;;;10900142;32;20039;-72
2022/11/23 12:03:24;;;;;;;5.90;3.33;;;13.30;79.30;;;;;;10883929;32;20332;-72
2022/11/23 12:09:33;;;;;;;6.18;4.05;;;13.40;79.90;;;;;;10781709;33;20055;-73
2022/11/23 12:15:42;;;;;;;5.97;2.75;;;13.20;79.30;;;;;;10785165;33;20063;-72
2022/11/23 12:22:18;;;;;;;3.80;2.03;;;13.20;78.90;;;;;;10783883;33;20319;-72
2022/11/23 12:28:34;;;;;;;2.08;1.30;;;13.30;79.20;;;;;;10788128;32;20028;-73
2022/11/23 12:34:42;;;;;;;3.72;2.08;;;13.30;78.90;;;;;;10787791;33;20055;-72
2022/11/23 12:40:49;;;;;;;6.80;3.20;;;13.30;78.80;;;;;;10853358;32;20023;-73
2022/11/23 12:47:11;;;;;;;2.80;2.25;;;13.20;78.10;;;;;;10860727;32;20063;-73
2022/11/23 12:53:25;;;;;;;3.60;2.10;;;13.40;79.10;;;;;;10865262;32;20058;-73
2022/11/23 12:59:41;;;;;;;4.07;1.92;;;13.50;78.60;;;;;;10864732;32;20031;-73
2022/11/23 13:06:10;;;;;;;3.78;2.33;;;13.60;78.90;;;;;;10863965;32;20024;-73
2022/11/23 13:12:21;;;;;;;2.97;2.10;;;13.70;78.40;;;;;;10864677;32;20035;-72
2022/11/23 13:18:47;;;;;;;2.30;2.10;;;13.80;78.20;;;;;;10863737;32;20031;-73
2022/11/23 13:25:11;;;;;;;1.73;1.30;;;13.90;78.20;;;;;;10859624;32;20061;-74
2022/11/23 13:31:23;;;;;;;1.62;1.40;;;13.90;78.10;;;;;;10864025;32;20028;-74
2022/11/23 13:37:26;;;;;;;2.03;1.55;;;14.00;79.50;;;;;;10863800;32;20058;-74
2022/11/23 13:43:30;;;;;;;1.73;1.45;;;14.00;79.70;;;;;;10863656;32;20358;-74
2022/11/23 13:49:41;;;;;;;1.92;1.58;;;14.00;80.00;;;;;;10863510;32;20054;-74
2022/11/23 13:55:44;;;;;;;2.28;1.35;;;13.90;79.80;;;;;;10863465;32;20347;-74
2022/11/23 14:02:08;;;;;;;1.58;1.30;;;14.00;80.30;;;;;;10863255;32;20031;-74
2022/11/23 14:08:11;;;;;;;1.20;1.00;;;14.20;80.00;;;;;;10862974;32;20065;-74
2022/11/23 14:14:19;;;;;;;0.95;0.90;;;14.50;80.40;;;;;;10862001;32;20061;-74
2022/11/23 14:20:55;;;;;;;1.73;1.30;;;14.60;80.60;;;;;;10859330;32;20059;-74
2022/11/23 14:27:39;;;;;;;6.30;1.77;;;14.70;81.20;;;;;;10862608;32;20383;-74
2022/11/23 14:34:12;;;;;;;1.90;1.45;;;14.40;82.10;;;;;;10862268;32;20067;-74
2022/11/23 14:40:26;;;;;;;1.17;0.73;;;14.50;82.10;;;;;;10861859;32;20019;-74
2022/11/23 14:46:29;;;;;;;1.50;1.20;;;14.10;83.10;;;;;;10864269;26;20050;-73
2022/11/23 14:52:34;;;;;;;1.15;0.88;;;13.70;83.20;;;;;;10859959;32;20034;-73
2022/11/23 14:58:36;;;;;;;1.77;1.02;;;13.50;83.90;;;;;;10861712;32;20054;-73
2022/11/23 15:05:06;;;;;;;4.05;1.98;;;13.60;84.30;;;;;;10861262;32;20032;-74
2022/11/23 15:11:14;;;;;;;2.50;1.87;;;13.90;84.10;;;;;;10859968;32;20035;-73
2022/11/23 15:17:21;;;;;;;3.30;1.90;;;14.10;84.00;;;;;;10861235;32;20348;-73
2022/11/23 15:23:53;;;;;;;4.35;2.05;;;13.80;84.20;;;;;;10860946;32;20031;-73
2022/11/23 15:29:58;;;;;;;2.65;1.80;;;13.50;84.70;;;;;;10860877;32;20028;-73
2022/11/23 15:36:03;;;;;;;3.67;2.17;;;13.30;85.00;;;;;;10860756;32;20024;-73
2022/11/23 15:42:09;;;;;;;3.97;1.77;;;13.20;85.10;;;;;;10860582;32;20054;-73
2022/11/23 15:48:43;;;;;;;3.62;2.17;;;13.10;85.20;;;;;;10861283;32;20059;-73
2022/11/23 15:54:45;;;;;;;2.85;2.08;;;13.00;85.30;;;;;;10866659;32;20070;-73
2022/11/23 16:01:09;;;;;;;5.93;3.70;;;12.80;85.30;;;;;;10866657;32;20027;-73
2022/11/23 16:07:22;;;;;;;3.05;2.42;;;12.70;85.30;;;;;;10866350;32;20070;-73
2022/11/23 16:13:36;;;;;;;3.12;2.62;;;12.60;85.20;;;;;;10864747;32;20077;-73
2022/11/23 16:19:38;;;;;;;4.78;2.37;;;12.50;85.20;;;;;;10866463;32;20062;-73
2022/11/23 16:25:40;;;;;;;5.15;3.90;;;12.40;85.10;;;;;;10852741;32;20046;-73
2022/11/23 16:31:53;;;;;;;8.10;4.30;;;12.30;85.00;;;;;;10865966;32;20399;-73
2022/11/23 16:37:55;;;;;;;7.55;5.50;;;12.20;85.00;;;;;;10864744;32;20312;-73
2022/11/23 16:43:58;;;;;;;7.72;5.12;;;12.20;84.90;;;;;;10865587;32;20031;-73
2022/11/23 16:50:00;;;;;;;9.95;5.45;;;12.00;84.90;;;;;;10865331;32;20046;-73
2022/11/23 16:56:02;;;;;;;7.20;5.70;;;12.00;84.80;;;;;;10863921;32;20375;-73
2022/11/23 17:02:14;;;;;;;9.45;6.53;;;11.90;84.70;;;;;;10863767;32;20061;-73
2022/11/23 17:08:17;;;;;;;11.23;8.70;;;11.80;84.70;;;;;;10861810;32;20438;-73
2022/11/23 17:14:25;;;;;;;10.50;8.02;;;11.80;84.70;;;;;;10864034;32;20031;-73
2022/11/23 17:20:27;;;;;;;10.13;8.00;;;11.70;84.70;;;;;;10839750;32;20062;-72
2022/11/23 17:26:37;;;;;;;10.88;7.62;;;11.70;84.70;;;;;;10827242;32;20024;-73
2022/11/23 17:32:38;;;;;;;20.00;10.33;;;11.60;84.60;;;;;;10827107;32;20036;-73
2022/11/23 17:38:43;;;;;;;10.68;9.02;;;11.50;84.50;;;;;;10822803;32;20147;-73
2022/11/23 17:44:46;;;;;;;12.93;8.38;;;11.60;85.00;;;;;;10826678;33;20017;-73
2022/11/23 17:50:48;;;;;;;12.45;8.93;;;11.50;84.80;;;;;;10826428;33;20062;-73
2022/11/23 17:56:51;;;;;;;9.32;7.30;;;11.50;84.70;;;;;;10826019;33;20019;-72
2022/11/23 18:02:53;;;;;;;10.90;8.68;;;11.50;84.90;;;;;;10826105;32;20054;-73
2022/11/23 18:08:56;;;;;;;10.23;8.10;;;11.50;85.30;;;;;;10822042;32;20024;-74
2022/11/23 18:15:00;;;;;;;10.48;7.97;;;11.50;85.40;;;;;;10825717;32;20328;-74
2022/11/23 18:21:05;;;;;;;10.75;8.48;;;11.30;85.20;;;;;;10825777;32;20019;-74
2022/11/23 18:27:07;;;;;;;10.55;8.15;;;11.20;85.40;;;;;;10825545;32;20032;-74
2022/11/23 18:33:09;;;;;;;15.23;10.82;;;11.20;85.20;;;;;;10812169;33;20035;-74
2022/11/23 18:39:12;;;;;;;12.80;10.40;;;11.10;85.00;;;;;;10825301;32;20028;-74
2022/11/23 18:45:14;;;;;;;14.90;10.95;;;11.00;84.90;;;;;;10824796;33;20050;-74
2022/11/23 18:51:21;;;;;;;15.00;11.18;;;10.90;84.80;;;;;;10824502;32;20040;-74
2022/11/23 18:57:23;;;;;;;22.35;18.98;;;10.90;84.70;;;;;;10820227;32;20054;-74
2022/11/23 19:03:25;;;;;;;20.02;13.00;;;10.90;84.50;;;;;;10824377;32;20028;-75
2022/11/23 19:09:27;;;;;;;14.27;12.02;;;10.80;84.40;;;;;;10824286;33;20328;-74
2022/11/23 19:15:29;;;;;;;14.15;10.52;;;10.70;84.60;;;;;;10823908;32;20047;-74
2022/11/23 19:21:34;;;;;;;22.17;16.95;;;10.60;84.50;;;;;;10822231;33;20052;-74
2022/11/23 19:27:36;;;;;;;13.40;10.60;;;10.50;84.40;;;;;;10828319;32;20344;-74
2022/11/23 19:33:38;;;;;;;17.25;13.13;;;10.40;84.40;;;;;;10830198;32;20020;-74
2022/11/23 19:39:40;;;;;;;15.23;10.55;;;10.40;84.30;;;;;;10830196;32;20043;-74
2022/11/23 19:45:42;;;;;;;19.80;15.32;;;10.30;84.40;;;;;;10829911;32;20052;-74
2022/11/23 19:51:46;;;;;;;16.12;14.43;;;10.30;84.40;;;;;;10829660;32;20058;-74
2022/11/23 19:57:48;;;;;;;21.83;18.58;;;10.30;84.40;;;;;;10829423;32;20028;-73
2022/11/23 20:03:52;;;;;;;21.77;16.87;;;10.30;84.20;;;;;;10829080;32;20032;-73
2022/11/23 20:09:54;;;;;;;19.15;15.30;;;10.20;84.10;;;;;;10828991;32;20062;-73
2022/11/23 20:16:05;;;;;;;17.15;15.27;;;10.30;84.10;;;;;;10829080;32;20062;-72
2022/11/23 20:22:09;;;;;;;19.52;15.20;;;10.40;84.40;;;;;;10828771;33;20015;-73
2022/11/23 20:28:12;;;;;;;18.65;15.75;;;10.50;84.40;;;;;;10828784;32;20066;-73
2022/11/23 20:34:14;;;;;;;19.05;14.98;;;10.50;84.50;;;;;;10828240;32;20055;-72
2022/11/23 20:40:17;;;;;;;18.90;16.40;;;10.70;84.10;;;;;;10828389;33;20024;-73
2022/11/23 20:46:20;;;;;;;19.62;17.40;;;10.80;83.70;;;;;;10814801;33;20024;-73
2022/11/23 20:52:23;;;;;;;21.45;15.70;;;11.00;83.50;;;;;;10827844;33;20379;-73
2022/11/23 20:58:25;;;;;;;21.20;14.20;;;10.90;83.50;;;;;;10824376;32;20024;-73
2022/11/23 21:04:48;;;;;;;15.48;13.70;;;10.90;83.80;;;;;;10814366;33;20016;-73
2022/11/23 21:17:13;;;;;;;16.92;15.02;;;11.00;83.50;;;;;;10827059;32;20067;-73
2022/11/23 21:23:16;;;;;;;22.02;17.83;;;10.80;83.70;;;;;;10813809;33;20020;-73
2022/11/23 21:29:19;;;;;;;20.33;15.68;;;10.90;83.80;;;;;;10826617;32;20397;-73
2022/11/23 21:35:21;;;;;;;26.23;21.33;;;10.90;83.50;;;;;;10826391;32;20031;-73
2022/11/23 21:41:23;;;;;;;21.48;16.48;;;10.90;83.50;;;;;;10826801;33;20046;-73
2022/11/23 21:47:25;;;;;;;19.48;14.80;;;10.90;83.20;;;;;;10821952;32;20012;-73
2022/11/23 21:53:28;;;;;;;19.40;17.33;;;10.70;83.40;;;;;;10826513;32;20054;-73
2022/11/23 21:59:30;;;;;;;25.70;18.10;;;10.80;83.40;;;;;;10826046;32;20023;-73
2022/11/23 22:05:33;;;;;;;16.67;13.95;;;10.80;83.60;;;;;;10823580;32;20055;-73
2022/11/23 22:11:39;;;;;;;17.45;14.57;;;10.70;83.40;;;;;;10826165;33;20016;-72
2022/11/23 22:17:41;;;;;;;13.50;12.05;;;10.70;83.40;;;;;;10825945;32;20055;-73
2022/11/23 22:24:21;;;;;;;14.10;11.12;;;10.60;83.40;;;;;;10825891;33;20020;-72
2022/11/23 22:30:23;;;;;;;12.45;10.18;;;10.50;83.30;;;;;;10825710;33;20020;-73
2022/11/23 22:36:26;;;;;;;15.60;11.48;;;10.40;83.40;;;;;;10825320;32;20023;-73
2022/11/23 22:42:28;;;;;;;15.10;11.68;;;10.30;83.50;;;;;;10821152;32;20028;-74
2022/11/23 22:48:30;;;;;;;14.05;9.75;;;10.40;83.80;;;;;;10873498;27;20414;-74
2022/11/23 22:54:34;;;;;;;12.95;10.00;;;10.40;83.60;;;;;;10899198;32;20089;-75
2022/11/23 23:00:39;;;;;;;11.05;8.40;;;10.40;83.60;;;;;;10899126;32;20077;-74
2022/11/23 23:06:41;;;;;;;12.32;9.65;;;10.40;83.50;;;;;;10898974;32;20023;-74
2022/11/23 23:12:43;;;;;;;9.93;7.85;;;10.30;83.90;;;;;;10899042;32;20410;-74
2022/11/23 23:19:20;;;;;;;11.05;8.73;;;10.40;84.00;;;;;;10898532;32;20387;-75
2022/11/23 23:25:22;;;;;;;12.35;10.75;;;10.30;83.70;;;;;;10898653;32;20308;-74
2022/11/23 23:31:25;;;;;;;10.55;8.73;;;10.20;83.60;;;;;;10898337;32;20046;-74
2022/11/23 23:37:27;;;;;;;10.02;7.43;;;10.20;84.10;;;;;;10898265;32;20057;-74
2022/11/23 23:43:30;;;;;;;9.25;6.90;;;10.20;84.00;;;;;;10898288;32;20027;-75
2022/11/23 23:49:33;;;;;;;9.18;6.10;;;10.20;83.80;;;;;;10898026;32;20073;-75
2022/11/23 23:55:35;;;;;;;10.38;7.25;;;10.10;83.60;;;;;;10897903;32;20027;-75
